createdAt,value
2019-04-16T00:00:28.403Z,18.73
2019-04-16T00:02:56.919Z,19.13
2019-04-16T00:05:28.461Z,19.23
2019-04-16T00:07:59.679Z,18.77
2019-04-16T00:10:39.713Z,20.20
2019-04-16T00:13:25.851Z,19.47
2019-04-16T00:15:56.359Z,18.90
2019-04-16T00:18:24.566Z,19.27
2019-04-16T00:21:12.023Z,18.47
2019-04-16T00:24:11.556Z,20.23
2019-04-16T00:26:39.690Z,19.10
2019-04-16T00:29:07.593Z,19.00
2019-04-16T00:31:37.041Z,17.97
2019-04-16T00:34:05.686Z,18.83
2019-04-16T00:36:33.706Z,18.37
2019-04-16T00:39:01.635Z,17.87
2019-04-16T00:41:31.329Z,17.57
2019-04-16T00:43:59.537Z,17.23
2019-04-16T00:46:27.683Z,18.07
2019-04-16T00:48:55.731Z,17.20
2019-04-16T00:51:23.953Z,16.40
2019-04-16T00:53:51.937Z,17.23
2019-04-16T00:56:20.055Z,17.37
2019-04-16T00:58:49.399Z,17.40
2019-04-16T01:01:18.250Z,16.60
2019-04-16T01:03:46.304Z,16.43
2019-04-16T01:06:14.469Z,17.50
2019-04-16T01:08:53.968Z,16.87
2019-04-16T01:11:14.347Z,15.53
2019-04-16T01:13:44.532Z,17.47
2019-04-16T01:16:12.578Z,18.20
2019-04-16T01:18:40.576Z,16.47
2019-04-16T01:21:13.730Z,16.60
2019-04-16T01:23:39.683Z,17.30
2019-04-16T01:26:07.838Z,18.00
2019-04-16T01:28:40.297Z,18.43
2019-04-16T01:31:27.216Z,16.83
2019-04-16T01:34:20.324Z,17.83
2019-04-16T01:37:08.163Z,18.17
2019-04-16T01:39:36.585Z,16.30
2019-04-16T01:42:06.331Z,18.23
2019-04-16T01:44:34.339Z,16.90
2019-04-16T01:47:04.175Z,18.60
2019-04-16T01:49:32.434Z,17.70
2019-04-16T01:52:00.632Z,17.03
2019-04-16T01:54:29.003Z,18.10
2019-04-16T01:57:00.056Z,16.70
2019-04-16T01:59:27.260Z,17.63
2019-04-16T02:01:55.176Z,16.87
2019-04-16T02:04:23.249Z,18.43
2019-04-16T02:06:51.429Z,18.37
2019-04-16T02:09:22.760Z,18.47
2019-04-16T02:11:49.862Z,16.67
2019-04-16T02:14:21.940Z,18.47
2019-04-16T02:16:47.769Z,18.03
2019-04-16T02:19:16.080Z,18.47
2019-04-16T02:21:44.620Z,18.73
2019-04-16T02:24:13.644Z,17.53
2019-04-16T02:26:41.480Z,17.97
2019-04-16T02:29:09.633Z,18.23
2019-04-16T02:31:37.829Z,16.27
2019-04-16T02:34:05.964Z,21.43
2019-04-16T02:36:34.297Z,17.53
2019-04-16T02:39:02.643Z,17.47
2019-04-16T02:41:32.586Z,18.47
2019-04-16T02:44:00.895Z,17.77
2019-04-16T02:46:32.360Z,17.33
2019-04-16T02:48:58.876Z,17.70
2019-04-16T02:51:45.279Z,18.83
2019-04-16T02:54:21.600Z,18.20
2019-04-16T02:57:15.143Z,18.10
2019-04-16T02:59:47.354Z,18.07
2019-04-16T03:02:38.169Z,18.43
2019-04-16T03:05:11.360Z,17.77
2019-04-16T03:07:39.554Z,18.07
2019-04-16T03:10:12.015Z,17.83
2019-04-16T03:12:37.020Z,18.03
2019-04-16T03:15:05.044Z,18.10
2019-04-16T03:17:35.914Z,18.10
2019-04-16T03:20:04.981Z,17.83
2019-04-16T03:22:33.502Z,19.00
2019-04-16T03:25:02.067Z,18.07
2019-04-16T03:27:29.689Z,18.77
2019-04-16T03:30:02.870Z,17.50
2019-04-16T03:32:33.648Z,18.47
2019-04-16T03:34:56.388Z,18.13
2019-04-16T03:37:24.160Z,18.40
2019-04-16T03:39:51.735Z,17.20
2019-04-16T03:42:19.454Z,18.30
2019-04-16T03:44:47.187Z,19.30
2019-04-16T03:47:15.692Z,17.77
2019-04-16T03:49:44.575Z,18.47
2019-04-16T03:52:12.301Z,18.43
2019-04-16T03:54:40.053Z,18.20
2019-04-16T03:57:07.800Z,17.90
2019-04-16T03:59:35.509Z,18.40
2019-04-16T04:02:03.196Z,17.40
2019-04-16T04:04:30.852Z,20.40
2019-04-16T04:06:58.555Z,19.73
2019-04-16T04:09:26.212Z,18.53
2019-04-16T04:11:53.928Z,17.67
2019-04-16T04:14:23.458Z,21.07
2019-04-16T04:16:51.598Z,18.43
2019-04-16T04:19:19.276Z,18.97
2019-04-16T04:21:47.004Z,24.50
2019-04-16T04:24:14.671Z,20.77
2019-04-16T04:26:42.479Z,19.47
2019-04-16T04:29:10.352Z,20.13
2019-04-16T04:31:39.520Z,19.90
2019-04-16T04:34:09.983Z,20.57
2019-04-16T04:36:37.654Z,20.50
2019-04-16T04:39:08.995Z,20.87
2019-04-16T04:41:35.839Z,20.57
2019-04-16T04:44:05.240Z,20.83
2019-04-16T04:46:33.220Z,21.10
2019-04-16T04:49:01.564Z,24.27
2019-04-16T04:51:29.801Z,24.20
2019-04-16T04:53:58.026Z,24.43
2019-04-16T04:56:27.959Z,22.77
2019-04-16T04:58:56.079Z,23.97
2019-04-16T05:01:23.866Z,26.77
2019-04-16T05:04:27.127Z,28.77
2019-04-16T05:06:58.216Z,23.50
2019-04-16T05:09:29.245Z,23.20
2019-04-16T05:11:56.450Z,25.80
2019-04-16T05:14:25.943Z,23.33
2019-04-16T05:16:54.042Z,24.53
2019-04-16T05:19:22.221Z,21.90
2019-04-16T05:21:50.869Z,27.40
2019-04-16T05:24:19.404Z,23.77
2019-04-16T05:26:47.413Z,23.87
2019-04-16T05:29:17.476Z,23.30
2019-04-16T05:31:45.394Z,26.57
2019-04-16T05:34:13.446Z,22.50
2019-04-16T05:36:46.245Z,26.83
2019-04-16T05:39:11.385Z,24.13
2019-04-16T05:41:39.069Z,29.17
2019-04-16T05:44:06.951Z,25.87
2019-04-16T05:46:34.691Z,28.27
2019-04-16T05:49:02.455Z,24.37
2019-04-16T05:51:31.436Z,22.47
2019-04-16T05:54:08.427Z,24.67
2019-04-16T05:56:39.974Z,18.03
2019-04-16T05:59:07.717Z,20.03
2019-04-16T06:01:42.448Z,26.57
2019-04-16T06:04:11.555Z,20.60
2019-04-16T06:06:39.264Z,18.40
2019-04-16T06:09:11.860Z,20.07
2019-04-16T06:11:38.214Z,23.33
2019-04-16T06:14:27.383Z,20.10
2019-04-16T06:17:25.907Z,23.73
2019-04-16T06:20:21.407Z,26.47
2019-04-16T06:23:21.404Z,23.97
2019-04-16T06:26:00.416Z,25.27
2019-04-16T06:28:46.018Z,23.73
2019-04-16T06:31:33.246Z,21.83
2019-04-16T06:34:35.573Z,23.17
2019-04-16T06:37:11.592Z,17.57
2019-04-16T06:40:01.049Z,18.83
2019-04-16T06:42:31.220Z,20.27
2019-04-16T06:45:01.624Z,17.67
2019-04-16T06:47:52.991Z,19.13
2019-04-16T06:50:42.622Z,19.97
2019-04-16T06:53:30.749Z,16.27
2019-04-16T06:56:19.931Z,19.97
2019-04-16T06:59:08.637Z,19.80
2019-04-16T07:01:53.345Z,17.03
2019-04-16T07:04:40.568Z,15.77
2019-04-16T07:07:38.546Z,20.57
2019-04-16T07:10:16.823Z,23.67
2019-04-16T07:12:44.471Z,15.37
2019-04-16T07:15:12.577Z,21.23
2019-04-16T07:17:40.685Z,20.20
2019-04-16T07:20:13.190Z,18.47
2019-04-16T07:22:37.987Z,16.67
2019-04-16T07:25:06.520Z,19.70
2019-04-16T07:27:52.729Z,18.47
2019-04-16T07:30:38.409Z,15.43
2019-04-16T07:33:22.601Z,18.47
2019-04-16T07:36:06.317Z,19.27
2019-04-16T07:38:42.247Z,18.30
2019-04-16T07:41:44.656Z,17.03
2019-04-16T07:44:16.794Z,14.33
2019-04-16T07:47:19.642Z,18.33
2019-04-16T07:50:01.686Z,16.80
2019-04-16T07:52:38.990Z,16.87
2019-04-16T07:55:26.739Z,16.80
2019-04-16T07:57:53.642Z,20.77
2019-04-16T08:00:21.458Z,24.87
2019-04-16T08:02:50.779Z,18.20
2019-04-16T08:05:18.760Z,18.65
2019-04-16T08:07:46.561Z,17.55
2019-04-16T08:10:16.742Z,19.60
2019-04-16T08:12:50.494Z,17.53
2019-04-16T08:15:18.199Z,17.57
2019-04-16T08:17:45.876Z,17.60
2019-04-16T08:20:13.495Z,18.63
2019-04-16T08:22:41.191Z,19.43
2019-04-16T08:25:08.929Z,17.27
2019-04-16T08:27:36.533Z,17.95
2019-04-16T08:30:07.147Z,17.52
2019-04-16T08:32:34.878Z,18.37
2019-04-16T08:35:02.461Z,18.32
2019-04-16T08:37:31.050Z,20.02
2019-04-16T08:39:58.725Z,17.12
2019-04-16T08:42:29.332Z,17.70
2019-04-16T08:44:55.804Z,18.25
2019-04-16T08:47:24.641Z,17.85
2019-04-16T08:49:54.111Z,17.77
2019-04-16T08:52:21.670Z,18.95
2019-04-16T08:54:50.387Z,17.80
2019-04-16T08:57:18.763Z,17.52
2019-04-16T08:59:46.333Z,17.80
2019-04-16T09:02:13.970Z,17.80
2019-04-16T09:04:41.601Z,20.02
2019-04-16T09:07:21.264Z,19.02
2019-04-16T09:09:51.377Z,17.62
2019-04-16T09:12:19.014Z,18.57
2019-04-16T09:14:51.567Z,19.07
2019-04-16T09:17:28.018Z,18.27
2019-04-16T09:20:01.764Z,19.57
2019-04-16T09:22:29.685Z,19.55
2019-04-16T09:25:13.846Z,19.02
2019-04-16T09:27:42.593Z,18.73
2019-04-16T09:30:32.924Z,18.35
2019-04-16T09:33:23.804Z,18.32
2019-04-16T09:36:09.628Z,18.60
2019-04-16T09:38:46.500Z,18.95
2019-04-16T09:41:33.886Z,19.92
2019-04-16T09:44:01.855Z,19.70
2019-04-16T09:46:49.763Z,20.55
2019-04-16T09:48:59.416Z,19.12
2019-04-16T09:51:27.728Z,18.67
2019-04-16T09:53:55.343Z,17.45
2019-04-16T09:56:29.033Z,19.02
2019-04-16T09:58:59.214Z,16.75
2019-04-16T10:01:31.520Z,18.55
2019-04-16T10:03:59.073Z,19.77
2019-04-16T10:06:26.788Z,20.25
2019-04-16T10:08:56.732Z,19.40
2019-04-16T10:11:23.889Z,19.00
2019-04-16T10:13:51.533Z,19.95
2019-04-16T10:16:21.279Z,18.20
2019-04-16T10:18:48.924Z,17.45
2019-04-16T10:21:19.682Z,19.40
2019-04-16T10:24:13.067Z,18.50
2019-04-16T10:26:40.439Z,17.92
2019-04-16T10:29:11.831Z,17.92
2019-04-16T10:31:39.479Z,19.02
2019-04-16T10:34:07.140Z,18.60
2019-04-16T10:36:38.012Z,19.40
2019-04-16T10:39:15.050Z,18.80
2019-04-16T10:41:50.701Z,18.27
2019-04-16T10:44:37.830Z,17.85
2019-04-16T10:47:31.033Z,17.60
2019-04-16T10:50:36.103Z,18.10
2019-04-16T10:53:20.577Z,17.02
2019-04-16T10:56:22.809Z,19.45
2019-04-16T10:59:12.923Z,18.32
2019-04-16T11:02:10.638Z,18.25
2019-04-16T11:05:19.291Z,18.10
2019-04-16T11:07:46.271Z,16.73
2019-04-16T11:10:14.062Z,17.80
2019-04-16T11:12:41.629Z,17.42
2019-04-16T11:15:11.604Z,15.90
2019-04-16T11:17:39.369Z,17.00
2019-04-16T11:20:07.351Z,17.90
2019-04-16T11:22:35.381Z,17.75
2019-04-16T11:25:03.408Z,17.52
2019-04-16T11:27:32.261Z,16.40
2019-04-16T11:30:00.418Z,16.87
2019-04-16T11:32:29.990Z,17.23
2019-04-16T11:34:58.344Z,17.75
2019-04-16T11:37:27.532Z,17.57
2019-04-16T11:39:55.693Z,15.53
2019-04-16T11:42:23.906Z,16.25
2019-04-16T11:44:51.618Z,14.58
2019-04-16T11:47:19.299Z,15.78
2019-04-16T11:49:46.983Z,14.38
2019-04-16T11:52:15.919Z,14.28
2019-04-16T11:54:46.801Z,14.78
2019-04-16T11:57:13.962Z,15.03
2019-04-16T11:59:41.756Z,17.00
2019-04-16T12:02:18.404Z,15.53
2019-04-16T12:04:59.356Z,15.35
2019-04-16T12:07:47.113Z,15.58
2019-04-16T12:10:33.620Z,15.65
2019-04-16T12:13:26.332Z,15.28
2019-04-16T12:16:13.550Z,15.28
2019-04-16T12:19:12.611Z,14.33
2019-04-16T12:22:05.919Z,15.18
2019-04-16T12:25:05.213Z,14.03
2019-04-16T12:28:12.484Z,14.07
2019-04-16T12:31:02.562Z,15.13
2019-04-16T12:33:49.795Z,13.88
2019-04-16T12:36:52.045Z,14.13
2019-04-16T12:39:37.460Z,14.47
2019-04-16T12:42:27.973Z,13.80
2019-04-16T12:45:13.721Z,14.80
2019-04-16T12:47:48.505Z,13.80
2019-04-16T12:50:35.788Z,15.63
2019-04-16T12:53:12.954Z,14.28
2019-04-16T12:56:06.029Z,14.50
2019-04-16T12:58:55.028Z,15.20
2019-04-16T13:01:54.190Z,15.13
2019-04-16T13:04:39.965Z,16.55
2019-04-16T13:07:30.140Z,14.40
2019-04-16T13:10:08.943Z,13.90
2019-04-16T13:12:58.310Z,15.00
2019-04-16T13:15:48.306Z,13.93
2019-04-16T13:18:35.865Z,14.73
2019-04-16T13:21:20.432Z,14.63
2019-04-16T13:24:01.040Z,14.90
2019-04-16T13:26:34.081Z,14.15
2019-04-16T13:29:05.324Z,15.05
2019-04-16T13:31:33.036Z,14.15
2019-04-16T13:34:00.731Z,13.50
2019-04-16T13:36:28.501Z,14.10
2019-04-16T13:39:04.938Z,13.70
2019-04-16T13:41:32.953Z,14.15
2019-04-16T13:44:07.939Z,14.68
2019-04-16T13:46:34.837Z,14.28
2019-04-16T13:49:32.276Z,13.28
2019-04-16T13:52:00.614Z,14.10
2019-04-16T13:54:39.561Z,14.05
2019-04-16T13:57:11.419Z,13.32
2019-04-16T14:00:03.028Z,13.80
2019-04-16T14:02:47.801Z,13.55
2019-04-16T14:05:15.528Z,14.23
2019-04-16T14:07:43.255Z,13.90
2019-04-16T14:10:11.612Z,14.23
2019-04-16T14:12:42.139Z,12.58
2019-04-16T14:15:09.536Z,14.45
2019-04-16T14:17:51.792Z,14.68
2019-04-16T14:20:08.583Z,13.93
2019-04-16T14:22:37.250Z,13.40
2019-04-16T14:25:05.234Z,12.43
2019-04-16T14:27:32.975Z,16.80
2019-04-16T14:30:00.826Z,12.03
2019-04-16T14:32:28.488Z,12.97
2019-04-16T14:35:00.819Z,12.50
2019-04-16T14:37:29.666Z,14.73
2019-04-16T14:40:05.888Z,12.70
2019-04-16T14:42:33.551Z,15.57
2019-04-16T14:45:11.536Z,11.40
2019-04-16T14:47:40.187Z,13.50
2019-04-16T14:50:07.718Z,12.17
2019-04-16T14:52:35.481Z,12.10
2019-04-16T14:55:12.798Z,12.47
2019-04-16T14:57:58.754Z,14.47
2019-04-16T15:00:44.890Z,13.47
2019-04-16T15:03:32.170Z,11.60
2019-04-16T15:06:12.114Z,12.67
2019-04-16T15:08:57.945Z,12.37
2019-04-16T15:11:51.050Z,12.00
2019-04-16T15:14:32.870Z,12.80
2019-04-16T15:17:12.187Z,14.80
2019-04-16T15:20:01.375Z,13.93
2019-04-16T15:23:05.120Z,13.70
2019-04-16T15:25:53.532Z,13.80
2019-04-16T15:28:29.406Z,11.47
2019-04-16T15:31:02.668Z,11.77
2019-04-16T15:33:55.752Z,12.50
2019-04-16T15:36:50.539Z,11.00
2019-04-16T15:39:35.379Z,11.73
2019-04-16T15:42:28.951Z,11.73
2019-04-16T15:45:03.425Z,12.43
2019-04-16T15:47:49.365Z,12.43
2019-04-16T15:50:25.797Z,13.80
2019-04-16T15:52:59.275Z,13.10
2019-04-16T15:55:46.500Z,11.93
2019-04-16T15:58:32.738Z,11.17
2019-04-16T16:01:19.958Z,12.10
2019-04-16T16:04:05.497Z,11.97
2019-04-16T16:06:33.378Z,12.67
2019-04-16T16:09:20.444Z,11.20
2019-04-16T16:12:10.613Z,11.83
2019-04-16T16:14:39.158Z,11.10
2019-04-16T16:17:07.110Z,10.90
2019-04-16T16:19:34.714Z,11.03
2019-04-16T16:22:02.478Z,12.23
2019-04-16T16:24:30.105Z,11.37
2019-04-16T16:26:57.701Z,11.00
2019-04-16T16:29:25.224Z,10.83
2019-04-16T16:31:52.831Z,10.23
2019-04-16T16:34:20.446Z,11.07
2019-04-16T16:36:48.152Z,10.70
2019-04-16T16:39:15.695Z,12.00
2019-04-16T16:41:46.706Z,12.00
2019-04-16T16:44:14.471Z,11.07
2019-04-16T16:46:57.198Z,11.70
2019-04-16T16:49:24.391Z,15.03
2019-04-16T16:52:29.581Z,11.43
2019-04-16T16:54:59.265Z,13.67
2019-04-16T16:57:35.878Z,11.13
2019-04-16T17:00:27.401Z,10.33
2019-04-16T17:03:20.381Z,13.63
2019-04-16T17:05:48.409Z,12.13
2019-04-16T17:08:16.115Z,15.03
2019-04-16T17:10:43.675Z,12.03
2019-04-16T17:13:14.640Z,11.80
2019-04-16T17:15:41.945Z,12.20
2019-04-16T17:18:09.659Z,15.17
2019-04-16T17:20:38.342Z,12.60
2019-04-16T17:23:07.252Z,12.40
2019-04-16T17:25:36.806Z,13.93
2019-04-16T17:28:04.865Z,12.97
2019-04-16T17:30:32.539Z,18.80
2019-04-16T17:33:00.073Z,13.23
2019-04-16T17:35:27.626Z,15.30
2019-04-16T17:37:55.396Z,14.53
2019-04-16T17:41:00.683Z,12.30
2019-04-16T17:43:37.003Z,12.77
2019-04-16T17:46:27.113Z,12.97
2019-04-16T17:49:14.268Z,11.07
2019-04-16T17:52:13.599Z,12.23
2019-04-16T17:55:00.727Z,11.63
2019-04-16T17:57:46.785Z,11.53
2019-04-16T18:00:34.651Z,9.97
2019-04-16T18:03:16.477Z,10.40
2019-04-16T18:05:50.995Z,13.77
2019-04-16T18:08:44.448Z,10.73
2019-04-16T18:11:15.628Z,13.17
2019-04-16T18:14:06.676Z,12.97
2019-04-16T18:16:40.895Z,13.73
2019-04-16T18:19:28.726Z,10.87
2019-04-16T18:22:21.694Z,11.50
2019-04-16T18:25:11.645Z,13.90
2019-04-16T18:27:44.181Z,10.40
2019-04-16T18:30:46.200Z,13.00
2019-04-16T18:33:20.859Z,14.43
2019-04-16T18:36:16.561Z,11.53
2019-04-16T18:39:05.107Z,13.17
2019-04-16T18:41:44.232Z,12.63
2019-04-16T18:44:31.288Z,11.40
2019-04-16T18:47:27.686Z,12.47
2019-04-16T18:49:57.728Z,11.57
2019-04-16T18:52:25.528Z,12.97
2019-04-16T18:54:53.168Z,14.57
2019-04-16T18:57:20.997Z,15.87
2019-04-16T18:59:48.656Z,13.50
2019-04-16T19:02:16.400Z,16.93
2019-04-16T19:04:44.045Z,17.73
2019-04-16T19:07:11.722Z,12.63
2019-04-16T19:09:39.300Z,15.37
2019-04-16T19:12:07.165Z,13.70
2019-04-16T19:14:36.702Z,15.17
2019-04-16T19:17:04.804Z,12.60
2019-04-16T19:19:32.381Z,12.70
2019-04-16T19:22:00.116Z,13.53
2019-04-16T19:24:27.732Z,13.90
2019-04-16T19:26:55.353Z,11.30
2019-04-16T19:29:23.251Z,14.30
2019-04-16T19:31:54.778Z,14.50
2019-04-16T19:34:20.423Z,16.03
2019-04-16T19:36:48.106Z,16.13
2019-04-16T19:39:15.775Z,16.37
2019-04-16T19:41:43.515Z,14.70
2019-04-16T19:44:11.199Z,14.13
2019-04-16T19:46:38.928Z,15.93
2019-04-16T19:49:06.685Z,15.33
2019-04-16T19:51:34.405Z,15.13
2019-04-16T19:54:02.077Z,16.67
2019-04-16T19:56:33.270Z,14.00
2019-04-16T19:58:59.588Z,13.33
2019-04-16T20:01:27.590Z,14.80
2019-04-16T20:03:55.614Z,14.37
2019-04-16T20:06:26.166Z,14.50
2019-04-16T20:08:53.732Z,16.50
2019-04-16T20:11:23.015Z,15.83
2019-04-16T20:13:50.598Z,16.13
2019-04-16T20:16:18.421Z,15.80
2019-04-16T20:18:51.151Z,16.07
2019-04-16T20:21:15.771Z,19.77
2019-04-16T20:23:43.366Z,18.73
2019-04-16T20:26:11.099Z,22.40
2019-04-16T20:28:38.721Z,18.93
2019-04-16T20:31:07.672Z,18.77
2019-04-16T20:33:35.303Z,20.43
2019-04-16T20:36:03.116Z,18.87
2019-04-16T20:38:31.015Z,24.57
2019-04-16T20:40:58.761Z,21.43
2019-04-16T20:43:26.455Z,19.67
2019-04-16T20:45:54.343Z,20.27
2019-04-16T20:48:21.989Z,19.20
2019-04-16T20:50:52.676Z,23.53
2019-04-16T20:53:19.276Z,17.27
2019-04-16T20:55:48.162Z,18.53
2019-04-16T20:58:15.811Z,16.43
2019-04-16T21:00:45.977Z,17.63
2019-04-16T21:03:21.936Z,15.90
2019-04-16T21:05:57.448Z,16.77
2019-04-16T21:08:12.722Z,17.57
2019-04-16T21:10:40.423Z,17.97
2019-04-16T21:13:08.072Z,19.17
2019-04-16T21:15:35.718Z,17.67
2019-04-16T21:18:03.788Z,15.93
2019-04-16T21:20:31.606Z,16.43
2019-04-16T21:23:01.875Z,15.73
2019-04-16T21:25:28.741Z,16.80
2019-04-16T21:28:07.549Z,17.33
2019-04-16T21:30:35.607Z,16.60
2019-04-16T21:33:21.156Z,17.00
2019-04-16T21:35:51.476Z,16.10
2019-04-16T21:38:25.670Z,16.47
2019-04-16T21:40:56.354Z,16.70
2019-04-16T21:43:22.865Z,16.13
2019-04-16T21:45:50.566Z,16.63
2019-04-16T21:48:18.073Z,18.00
2019-04-16T21:50:47.592Z,17.83
2019-04-16T21:53:15.343Z,19.00
2019-04-16T21:55:43.060Z,16.70
2019-04-16T21:58:14.541Z,18.20
2019-04-16T22:00:59.759Z,17.03
2019-04-16T22:03:29.946Z,19.50
2019-04-16T22:05:57.994Z,16.70
2019-04-16T22:08:29.390Z,16.50
2019-04-16T22:10:55.963Z,18.10
2019-04-16T22:13:23.689Z,16.80
2019-04-16T22:15:53.767Z,17.63
2019-04-16T22:18:22.333Z,17.37
2019-04-16T22:20:49.889Z,17.20
2019-04-16T22:23:19.338Z,18.20
2019-04-16T22:25:46.924Z,16.87
2019-04-16T22:28:14.704Z,15.57
2019-04-16T22:30:43.527Z,19.43
2019-04-16T22:33:11.280Z,18.10
2019-04-16T22:35:39.014Z,18.10
2019-04-16T22:38:06.769Z,17.10
2019-04-16T22:40:54.957Z,19.13
2019-04-16T22:43:57.256Z,21.27
2019-04-16T22:46:38.043Z,17.33
2019-04-16T22:49:06.119Z,17.73
2019-04-16T22:51:34.160Z,16.90
2019-04-16T22:54:02.083Z,19.57
2019-04-16T22:56:40.646Z,18.43
2019-04-16T22:59:08.805Z,17.60
2019-04-16T23:01:37.601Z,19.10
2019-04-16T23:04:05.291Z,18.97
2019-04-16T23:06:37.798Z,17.27
2019-04-16T23:09:02.837Z,17.87
2019-04-16T23:11:32.204Z,20.70
2019-04-16T23:14:02.495Z,18.23
2019-04-16T23:16:29.427Z,16.50
2019-04-16T23:18:57.258Z,19.90
2019-04-16T23:21:24.845Z,17.93
2019-04-16T23:23:52.528Z,19.67
2019-04-16T23:26:20.282Z,20.53
2019-04-16T23:28:48.051Z,18.53
2019-04-16T23:31:15.686Z,17.50
2019-04-16T23:33:43.576Z,20.10
2019-04-16T23:36:16.542Z,17.60
2019-04-16T23:38:42.527Z,18.07
2019-04-16T23:41:15.341Z,17.73
2019-04-16T23:44:00.228Z,18.33
2019-04-16T23:46:47.390Z,18.80
2019-04-16T23:49:43.692Z,19.87
2019-04-16T23:52:15.803Z,19.17
2019-04-16T23:54:52.696Z,19.90
2019-04-16T23:57:49.078Z,18.87
